Time,TemperatureF,DewpointF,PressureIn,WindDirection,WindDirectionDegrees,WindSpeedMPH,WindSpeedGustMPH,Humidity,HourlyPrecipIn,Conditions,Clouds,dailyrainin,SoftwareType,DateUTC
2013-08-10 00:01:00,68.9,67.7,30.00,ENE,74,0.0,0.0,96,0.00,,,0.00,Wunderground v.1.15,2013-08-10 04:01:00,
2013-08-10 00:03:00,68.9,67.7,30.00,ENE,74,0.0,0.0,96,0.00,,,0.00,Wunderground v.1.15,2013-08-10 04:03:00,
2013-08-10 00:07:00,68.9,67.7,30.00,ENE,74,0.0,0.0,96,0.00,,,0.00,Wunderground v.1.15,2013-08-10 04:07:00,
2013-08-10 00:08:00,68.9,67.7,30.00,ENE,74,0.0,0.0,96,0.00,,,0.00,Wunderground v.1.15,2013-08-10 04:08:00,
2013-08-10 00:10:00,68.9,67.7,30.00,ENE,74,0.0,0.0,96,0.00,,,0.00,Wunderground v.1.15,2013-08-10 04:10:00,
2013-08-10 00:15:00,68.9,67.7,30.00,ENE,74,0.0,0.0,96,0.00,,,0.00,Wunderground v.1.15,2013-08-10 04:15:00,
2013-08-10 00:20:00,68.8,67.6,30.00,ENE,74,0.0,0.0,96,0.00,,,0.00,Wunderground v.1.15,2013-08-10 04:20:00,
2013-08-10 00:25:00,68.8,67.6,30.00,ENE,74,0.0,0.0,96,0.00,,,0.00,Wunderground v.1.15,2013-08-10 04:25:00,
2013-08-10 00:31:00,68.6,67.4,30.00,ENE,74,0.0,0.0,96,0.00,,,0.00,Wunderground v.1.15,2013-08-10 04:31:00,
2013-08-10 00:37:00,68.6,67.4,30.00,ENE,74,0.0,1.0,96,0.00,,,0.00,Wunderground v.1.15,2013-08-10 04:37:00,
2013-08-10 00:42:00,68.6,67.4,30.00,ENE,74,0.0,1.0,96,0.00,,,0.00,Wunderground v.1.15,2013-08-10 04:42:00,
2013-08-10 00:48:00,68.6,67.4,30.00,ENE,74,0.0,1.0,96,0.00,,,0.00,Wunderground v.1.15,2013-08-10 04:48:00,
2013-08-10 00:54:00,68.6,67.4,30.00,ENE,74,0.0,1.0,96,0.00,,,0.00,Wunderground v.1.15,2013-08-10 04:54:00,
2013-08-10 00:59:00,68.6,67.4,30.00,ENE,74,0.0,1.0,96,0.00,,,0.00,Wunderground v.1.15,2013-08-10 04:59:00,
2013-08-10 01:05:00,68.6,67.4,30.00,ENE,74,0.0,0.0,96,0.00,,,0.00,Wunderground v.1.15,2013-08-10 05:05:00,
2013-08-10 01:10:00,68.4,67.2,30.00,ENE,74,0.0,0.0,96,0.00,,,0.00,Wunderground v.1.15,2013-08-10 05:10:00,
2013-08-10 01:16:00,68.6,67.4,30.00,ENE,74,0.0,0.0,96,0.00,,,0.00,Wunderground v.1.15,2013-08-10 05:16:00,
2013-08-10 01:21:00,68.4,67.2,30.00,ENE,74,0.0,0.0,96,0.00,,,0.00,Wunderground v.1.15,2013-08-10 05:21:00,
2013-08-10 01:27:00,68.4,67.2,30.00,ENE,74,0.0,0.0,96,0.00,,,0.00,Wunderground v.1.15,2013-08-10 05:27:00,
2013-08-10 01:32:00,68.4,67.2,29.99,ENE,74,0.0,0.0,96,0.00,,,0.00,Wunderground v.1.15,2013-08-10 05:32:00,
2013-08-10 01:38:00,68.4,67.2,29.99,ENE,74,0.0,0.0,96,0.00,,,0.00,Wunderground v.1.15,2013-08-10 05:38:00,
2013-08-10 01:43:00,68.4,67.2,29.99,ENE,74,0.0,0.0,96,0.00,,,0.00,Wunderground v.1.15,2013-08-10 05:43:00,
2013-08-10 01:48:00,68.4,67.2,29.99,ENE,74,0.0,0.0,96,0.00,,,0.00,Wunderground v.1.15,2013-08-10 05:48:00,
2013-08-10 01:54:00,68.4,67.2,29.99,ENE,74,0.0,0.0,96,0.00,,,0.00,Wunderground v.1.15,2013-08-10 05:54:00,
2013-08-10 01:59:00,68.4,67.2,29.99,ENE,74,0.0,0.0,96,0.00,,,0.00,Wunderground v.1.15,2013-08-10 05:59:00,
2013-08-10 02:05:00,68.4,67.2,29.99,ENE,74,0.0,0.0,96,0.00,,,0.00,Wunderground v.1.15,2013-08-10 06:05:00,
2013-08-10 02:10:00,68.4,67.2,29.99,ENE,74,0.0,0.0,96,0.00,,,0.00,Wunderground v.1.15,2013-08-10 06:10:00,
2013-08-10 02:16:00,68.4,67.2,29.99,ENE,74,0.0,0.0,96,0.00,,,0.00,Wunderground v.1.15,2013-08-10 06:16:00,
2013-08-10 02:21:00,68.3,67.1,29.99,ENE,74,0.0,0.0,96,0.00,,,0.00,Wunderground v.1.15,2013-08-10 06:21:00,
2013-08-10 02:27:00,68.3,67.1,29.99,ENE,74,0.0,0.0,96,0.00,,,0.00,Wunderground v.1.15,2013-08-10 06:27:00,
2013-08-10 02:33:00,68.3,67.1,29.99,ENE,74,0.0,0.0,96,0.00,,,0.00,Wunderground v.1.15,2013-08-10 06:33:00,
2013-08-10 02:38:00,68.1,66.9,29.99,ENE,74,0.0,0.0,96,0.00,,,0.00,Wunderground v.1.15,2013-08-10 06:38:00,
2013-08-10 02:43:00,68.1,66.9,29.99,ENE,74,0.0,0.0,96,0.00,,,0.00,Wunderground v.1.15,2013-08-10 06:43:00,
2013-08-10 02:49:00,68.1,66.9,29.99,ENE,74,0.0,0.0,96,0.00,,,0.00,Wunderground v.1.15,2013-08-10 06:49:00,
2013-08-10 02:54:00,68.1,66.9,29.99,ENE,74,0.0,0.0,96,0.00,,,0.00,Wunderground v.1.15,2013-08-10 06:54:00,
2013-08-10 02:59:00,68.1,66.9,29.99,ENE,74,0.0,0.0,96,0.00,,,0.00,Wunderground v.1.15,2013-08-10 06:59:00,
2013-08-10 03:05:00,67.9,66.7,29.99,ENE,74,0.0,0.0,96,0.00,,,0.00,Wunderground v.1.15,2013-08-10 07:05:00,
2013-08-10 03:10:00,67.9,66.7,29.99,ENE,74,0.0,0.0,96,0.00,,,0.00,Wunderground v.1.15,2013-08-10 07:10:00,
2013-08-10 03:16:00,67.8,66.6,29.98,ENE,74,0.0,0.0,96,0.00,,,0.00,Wunderground v.1.15,2013-08-10 07:16:00,
2013-08-10 03:21:00,67.8,66.6,29.98,ENE,74,0.0,0.0,96,0.00,,,0.00,Wunderground v.1.15,2013-08-10 07:21:00,
2013-08-10 03:27:00,67.6,66.4,29.98,ENE,74,0.0,0.0,96,0.00,,,0.00,Wunderground v.1.15,2013-08-10 07:27:00,
2013-08-10 03:32:00,67.6,66.4,29.99,ENE,74,0.0,0.0,96,0.00,,,0.00,Wunderground v.1.15,2013-08-10 07:32:00,
2013-08-10 03:38:00,67.4,66.2,29.99,ENE,74,0.0,0.0,96,0.00,,,0.00,Wunderground v.1.15,2013-08-10 07:38:00,
2013-08-10 03:43:00,67.3,66.1,29.99,ENE,74,0.0,0.0,96,0.00,,,0.00,Wunderground v.1.15,2013-08-10 07:43:00,
2013-08-10 03:48:00,67.3,66.1,29.99,ENE,74,0.0,0.0,96,0.00,,,0.00,Wunderground v.1.15,2013-08-10 07:48:00,
2013-08-10 03:54:00,67.1,65.9,29.99,ENE,74,0.0,0.0,96,0.00,,,0.00,Wunderground v.1.15,2013-08-10 07:54:00,
2013-08-10 03:59:00,67.1,65.9,29.99,ENE,74,0.0,0.0,96,0.00,,,0.00,Wunderground v.1.15,2013-08-10 07:59:00,
2013-08-10 04:05:00,66.9,65.7,29.98,ENE,74,0.0,0.0,96,0.00,,,0.00,Wunderground v.1.15,2013-08-10 08:05:00,
2013-08-10 04:11:00,66.8,65.6,29.98,ENE,74,0.0,0.0,96,0.00,,,0.00,Wunderground v.1.15,2013-08-10 08:11:00,
2013-08-10 04:17:00,66.8,65.6,29.98,ENE,74,0.0,0.0,96,0.00,,,0.00,Wunderground v.1.15,2013-08-10 08:17:00,
2013-08-10 04:23:00,66.8,65.6,29.98,ENE,74,0.0,0.0,96,0.00,,,0.00,Wunderground v.1.15,2013-08-10 08:23:00,
2013-08-10 04:28:00,66.8,65.6,29.98,ENE,74,0.0,0.0,96,0.00,,,0.00,Wunderground v.1.15,2013-08-10 08:28:00,
2013-08-10 04:34:00,66.6,65.4,29.98,ENE,74,0.0,0.0,96,0.00,,,0.00,Wunderground v.1.15,2013-08-10 08:34:00,
2013-08-10 04:40:00,66.6,65.4,29.98,ENE,74,0.0,0.0,96,0.00,,,0.00,Wunderground v.1.15,2013-08-10 08:40:00,
2013-08-10 04:46:00,66.4,65.2,29.99,ENE,74,0.0,0.0,96,0.00,,,0.00,Wunderground v.1.15,2013-08-10 08:46:00,
2013-08-10 04:51:00,66.4,65.5,29.99,ENE,74,0.0,0.0,97,0.00,,,0.00,Wunderground v.1.15,2013-08-10 08:51:00,
2013-08-10 04:57:00,66.4,65.5,29.99,ENE,74,0.0,0.0,97,0.00,,,0.00,Wunderground v.1.15,2013-08-10 08:57:00,
2013-08-10 05:03:00,66.4,65.5,29.98,ENE,74,0.0,0.0,97,0.00,,,0.00,Wunderground v.1.15,2013-08-10 09:03:00,
2013-08-10 05:08:00,66.4,65.5,29.98,ENE,74,0.0,0.0,97,0.00,,,0.00,Wunderground v.1.15,2013-08-10 09:08:00,
2013-08-10 05:13:00,66.3,65.4,29.98,ENE,74,0.0,0.0,97,0.00,,,0.00,Wunderground v.1.15,2013-08-10 09:13:00,
2013-08-10 05:18:00,66.1,65.2,29.98,ENE,74,0.0,0.0,97,0.00,,,0.00,Wunderground v.1.15,2013-08-10 09:18:00,
2013-08-10 05:24:00,66.0,65.1,29.98,ENE,74,0.0,0.0,97,0.00,,,0.00,Wunderground v.1.15,2013-08-10 09:24:00,
2013-08-10 05:29:00,66.0,65.1,29.98,ENE,74,0.0,0.0,97,0.00,,,0.00,Wunderground v.1.15,2013-08-10 09:29:00,
2013-08-10 05:35:00,66.0,65.1,29.99,ENE,74,0.0,0.0,97,0.00,,,0.00,Wunderground v.1.15,2013-08-10 09:35:00,
2013-08-10 05:41:00,66.0,65.1,29.99,ENE,74,0.0,0.0,97,0.00,,,0.00,Wunderground v.1.15,2013-08-10 09:41:00,
2013-08-10 05:46:00,66.0,65.1,29.98,ENE,74,0.0,0.0,97,0.00,,,0.00,Wunderground v.1.15,2013-08-10 09:46:00,
2013-08-10 05:52:00,66.1,65.2,29.98,ENE,74,0.0,0.0,97,0.00,,,0.00,Wunderground v.1.15,2013-08-10 09:52:00,
2013-08-10 05:57:00,66.3,65.4,29.98,ENE,74,0.0,0.0,97,0.00,,,0.00,Wunderground v.1.15,2013-08-10 09:57:00,
2013-08-10 06:02:00,66.3,65.4,29.99,ENE,74,0.0,0.0,97,0.00,,,0.00,Wunderground v.1.15,2013-08-10 10:02:00,
2013-08-10 06:07:00,66.1,65.2,29.99,ENE,74,0.0,0.0,97,0.00,,,0.00,Wunderground v.1.15,2013-08-10 10:07:00,
2013-08-10 06:13:00,66.1,65.2,29.99,ENE,74,0.0,0.0,97,0.00,,,0.00,Wunderground v.1.15,2013-08-10 10:13:00,
2013-08-10 06:18:00,66.1,65.2,29.99,ENE,74,0.0,0.0,97,0.00,,,0.00,Wunderground v.1.15,2013-08-10 10:18:00,
2013-08-10 06:24:00,66.1,65.2,29.99,ENE,74,0.0,0.0,97,0.00,,,0.00,Wunderground v.1.15,2013-08-10 10:24:00,
2013-08-10 06:29:00,66.0,65.1,29.99,ENE,74,0.0,0.0,97,0.00,,,0.00,Wunderground v.1.15,2013-08-10 10:29:00,
2013-08-10 06:34:00,66.0,65.1,30.00,ENE,74,0.0,0.0,97,0.00,,,0.00,Wunderground v.1.15,2013-08-10 10:34:00,
2013-08-10 06:39:00,65.8,64.9,30.00,ENE,74,0.0,0.0,97,0.00,,,0.00,Wunderground v.1.15,2013-08-10 10:39:00,
2013-08-10 06:45:00,65.8,64.9,30.00,ENE,74,0.0,0.0,97,0.00,,,0.00,Wunderground v.1.15,2013-08-10 10:45:00,
2013-08-10 06:51:00,65.8,64.9,30.00,ENE,74,0.0,0.0,97,0.00,,,0.00,Wunderground v.1.15,2013-08-10 10:51:00,
2013-08-10 06:57:00,65.8,64.9,30.00,ENE,74,0.0,0.0,97,0.00,,,0.00,Wunderground v.1.15,2013-08-10 10:57:00,
2013-08-10 07:02:00,65.8,64.9,30.00,ENE,74,0.0,0.0,97,0.00,,,0.00,Wunderground v.1.15,2013-08-10 11:02:00,
2013-08-10 07:07:00,65.8,64.9,30.00,ENE,74,0.0,0.0,97,0.00,,,0.00,Wunderground v.1.15,2013-08-10 11:07:00,
2013-08-10 07:13:00,65.8,64.9,30.00,ENE,74,0.0,0.0,97,0.00,,,0.00,Wunderground v.1.15,2013-08-10 11:13:00,
2013-08-10 07:18:00,65.8,64.9,30.01,ENE,74,0.0,0.0,97,0.00,,,0.00,Wunderground v.1.15,2013-08-10 11:18:00,
2013-08-10 07:23:00,65.8,64.9,30.01,ENE,74,0.0,0.0,97,0.00,,,0.00,Wunderground v.1.15,2013-08-10 11:23:00,
2013-08-10 07:28:00,65.6,64.7,30.01,ENE,74,0.0,0.0,97,0.00,,,0.00,Wunderground v.1.15,2013-08-10 11:28:00,
2013-08-10 07:34:00,65.6,64.7,30.01,ENE,74,0.0,0.0,97,0.00,,,0.00,Wunderground v.1.15,2013-08-10 11:34:00,
2013-08-10 07:40:00,65.5,64.6,30.01,ENE,74,0.0,0.0,97,0.00,,,0.00,Wunderground v.1.15,2013-08-10 11:40:00,
2013-08-10 07:45:00,65.3,64.4,30.01,ENE,74,0.0,0.0,97,0.00,,,0.00,Wunderground v.1.15,2013-08-10 11:45:00,
2013-08-10 07:51:00,65.3,64.4,30.01,ENE,74,0.0,0.0,97,0.00,,,0.00,Wunderground v.1.15,2013-08-10 11:51:00,
2013-08-10 07:57:00,65.5,64.9,30.01,ENE,74,0.0,0.0,98,0.00,,,0.00,Wunderground v.1.15,2013-08-10 11:57:00,
2013-08-10 08:03:00,65.6,65.0,30.02,ENE,74,0.0,0.0,98,0.00,,,0.00,Wunderground v.1.15,2013-08-10 12:03:00,
2013-08-10 08:09:00,66.0,65.4,30.02,ENE,74,0.0,0.0,98,0.00,,,0.00,Wunderground v.1.15,2013-08-10 12:09:00,
2013-08-10 08:14:00,66.3,65.7,30.02,ENE,74,0.0,0.0,98,0.00,,,0.00,Wunderground v.1.15,2013-08-10 12:14:00,
2013-08-10 08:19:00,66.4,65.8,30.02,ENE,74,0.0,0.0,98,0.00,,,0.00,Wunderground v.1.15,2013-08-10 12:19:00,
2013-08-10 08:25:00,66.6,66.0,30.02,ENE,74,0.0,0.0,98,0.00,,,0.00,Wunderground v.1.15,2013-08-10 12:25:00,
2013-08-10 08:30:00,67.1,66.5,30.02,ENE,74,0.0,0.0,98,0.00,,,0.00,Wunderground v.1.15,2013-08-10 12:30:00,
2013-08-10 08:36:00,67.4,66.8,30.02,ENE,74,0.0,2.0,98,0.00,,,0.00,Wunderground v.1.15,2013-08-10 12:36:00,
2013-08-10 08:41:00,67.6,67.0,30.02,ENE,74,0.0,2.0,98,0.00,,,0.00,Wunderground v.1.15,2013-08-10 12:41:00,
2013-08-10 08:47:00,67.8,67.2,30.02,ENE,74,0.0,2.0,98,0.00,,,0.00,Wunderground v.1.15,2013-08-10 12:47:00,
2013-08-10 08:52:00,68.1,67.5,30.02,ENE,74,0.0,2.0,98,0.00,,,0.00,Wunderground v.1.15,2013-08-10 12:52:00,
2013-08-10 08:57:00,68.4,67.8,30.02,ENE,74,0.0,2.0,98,0.00,,,0.00,Wunderground v.1.15,2013-08-10 12:57:00,
2013-08-10 09:03:00,68.8,67.9,30.02,ENE,74,0.0,0.0,97,0.00,,,0.00,Wunderground v.1.15,2013-08-10 13:03:00,
2013-08-10 09:08:00,69.1,68.2,30.02,ENE,74,0.0,0.0,97,0.00,,,0.00,Wunderground v.1.15,2013-08-10 13:08:00,
2013-08-10 09:14:00,69.3,68.1,30.02,ENE,74,0.0,0.0,96,0.00,,,0.00,Wunderground v.1.15,2013-08-10 13:14:00,
2013-08-10 09:20:00,69.8,68.3,30.02,ENE,74,0.0,0.0,95,0.00,,,0.00,Wunderground v.1.15,2013-08-10 13:20:00,
2013-08-10 09:25:00,70.1,68.6,30.02,ENE,74,0.0,0.0,95,0.00,,,0.00,Wunderground v.1.15,2013-08-10 13:25:00,
2013-08-10 09:30:00,70.4,68.9,30.02,ENE,74,0.0,0.0,95,0.00,,,0.00,Wunderground v.1.15,2013-08-10 13:30:00,
2013-08-10 09:35:00,70.8,69.0,30.02,ENE,74,0.0,1.0,94,0.00,,,0.00,Wunderground v.1.15,2013-08-10 13:35:00,
2013-08-10 09:41:00,70.9,68.8,30.02,ENE,74,0.0,1.0,93,0.00,,,0.00,Wunderground v.1.15,2013-08-10 13:41:00,
2013-08-10 09:46:00,71.3,68.9,30.02,ENE,74,0.0,1.0,92,0.00,,,0.00,Wunderground v.1.15,2013-08-10 13:46:00,
2013-08-10 09:51:00,71.8,69.0,30.02,ENE,74,0.0,1.0,91,0.00,,,0.00,Wunderground v.1.15,2013-08-10 13:51:00,
2013-08-10 09:57:00,72.3,68.9,30.02,ENE,74,0.0,1.0,89,0.00,,,0.00,Wunderground v.1.15,2013-08-10 13:57:00,
2013-08-10 10:02:00,72.7,68.9,30.02,ENE,74,0.0,1.0,88,0.00,,,0.00,Wunderground v.1.15,2013-08-10 14:02:00,
2013-08-10 10:07:00,73.0,68.9,30.02,ENE,74,0.0,1.0,87,0.00,,,0.00,Wunderground v.1.15,2013-08-10 14:07:00,
2013-08-10 10:12:00,73.2,68.8,30.02,ENE,74,0.0,1.0,86,0.00,,,0.00,Wunderground v.1.15,2013-08-10 14:12:00,
2013-08-10 10:18:00,73.5,69.1,30.02,ENE,74,0.0,1.0,86,0.00,,,0.00,Wunderground v.1.15,2013-08-10 14:18:00,
2013-08-10 10:23:00,73.9,69.4,30.02,ENE,74,0.0,1.0,86,0.00,,,0.00,Wunderground v.1.15,2013-08-10 14:23:00,
2013-08-10 10:28:00,74.2,69.1,30.02,ENE,74,0.0,1.0,84,0.00,,,0.00,Wunderground v.1.15,2013-08-10 14:28:00,
2013-08-10 10:33:00,74.7,68.5,30.02,ENE,74,0.0,2.0,81,0.00,,,0.00,Wunderground v.1.15,2013-08-10 14:33:00,
2013-08-10 10:39:00,75.3,68.7,30.02,SSE,157,0.0,4.0,80,0.00,,,0.00,Wunderground v.1.15,2013-08-10 14:39:00,
2013-08-10 10:44:00,75.6,68.6,30.02,SSE,157,0.0,2.0,79,0.00,,,0.00,Wunderground v.1.15,2013-08-10 14:44:00,
2013-08-10 10:50:00,76.1,68.0,30.03,SSE,157,0.0,2.0,76,0.00,,,0.00,Wunderground v.1.15,2013-08-10 14:50:00,
2013-08-10 10:55:00,76.7,68.9,30.03,SSE,157,0.0,2.0,77,0.00,,,0.00,Wunderground v.1.15,2013-08-10 14:55:00,
2013-08-10 11:01:00,77.2,69.0,30.02,SSE,157,0.0,2.0,76,0.00,,,0.00,Wunderground v.1.15,2013-08-10 15:01:00,
2013-08-10 11:06:00,77.7,69.9,30.02,SSE,157,0.0,4.0,77,0.00,,,0.00,Wunderground v.1.15,2013-08-10 15:06:00,
2013-08-10 11:12:00,77.7,68.4,30.02,SSE,157,0.0,4.0,73,0.00,,,0.00,Wunderground v.1.15,2013-08-10 15:12:00,
2013-08-10 11:18:00,77.4,68.1,30.03,SSE,157,0.0,4.0,73,0.00,,,0.00,Wunderground v.1.15,2013-08-10 15:18:00,
2013-08-10 11:23:00,77.0,69.2,30.03,SSE,157,0.0,4.0,77,0.00,,,0.00,Wunderground v.1.15,2013-08-10 15:23:00,
2013-08-10 11:28:00,76.3,69.3,30.03,SSE,157,0.0,4.0,79,0.00,,,0.00,Wunderground v.1.15,2013-08-10 15:28:00,
2013-08-10 11:34:00,76.5,70.6,30.03,SSE,157,0.0,1.0,82,0.00,,,0.00,Wunderground v.1.15,2013-08-10 15:34:00,
2013-08-10 11:39:00,77.6,69.0,30.03,SSE,157,0.0,1.0,75,0.00,,,0.00,Wunderground v.1.15,2013-08-10 15:39:00,
2013-08-10 11:45:00,78.5,69.1,30.02,SSE,157,0.0,1.0,73,0.00,,,0.00,Wunderground v.1.15,2013-08-10 15:45:00,
2013-08-10 11:51:00,78.5,68.3,30.02,SW,221,0.0,2.0,71,0.00,,,0.00,Wunderground v.1.15,2013-08-10 15:51:00,
2013-08-10 11:56:00,78.5,68.3,30.02,SW,221,0.0,1.0,71,0.00,,,0.00,Wunderground v.1.15,2013-08-10 15:56:00,
2013-08-10 12:02:00,78.6,67.6,30.02,SW,228,0.0,3.0,69,0.00,,,0.00,Wunderground v.1.15,2013-08-10 16:02:00,
2013-08-10 12:08:00,78.5,67.5,30.02,WSW,243,0.0,3.0,69,0.00,,,0.00,Wunderground v.1.15,2013-08-10 16:08:00,
2013-08-10 12:13:00,77.9,68.9,30.02,WSW,247,1.0,3.0,74,0.00,,,0.01,Wunderground v.1.15,2013-08-10 16:13:00,
2013-08-10 12:19:00,75.8,70.3,30.03,WSW,247,1.0,3.0,83,0.60,,,0.07,Wunderground v.1.15,2013-08-10 16:19:00,
2013-08-10 15:37:00,76.3,70.4,30.01,NE,49,0.0,4.0,82,0.00,,,0.13,Wunderground v.1.15,2013-08-10 19:37:00,
2013-08-10 15:43:00,76.3,70.4,30.01,SW,228,0.0,4.0,82,0.00,,,0.13,Wunderground v.1.15,2013-08-10 19:43:00,
2013-08-10 15:49:00,76.5,69.9,30.00,WSW,248,0.0,4.0,80,0.00,,,0.13,Wunderground v.1.15,2013-08-10 19:49:00,
2013-08-10 15:54:00,76.5,68.7,30.00,WSW,248,0.0,4.0,77,0.00,,,0.13,Wunderground v.1.15,2013-08-10 19:54:00,
2013-08-10 15:59:00,76.5,68.4,30.00,WSW,246,0.0,4.0,76,0.00,,,0.13,Wunderground v.1.15,2013-08-10 19:59:00,
2013-08-10 16:05:00,76.5,68.4,29.98,WSW,243,1.0,6.0,76,0.00,,,0.13,Wunderground v.1.15,2013-08-10 20:05:00,
2013-08-10 16:10:00,76.8,68.3,29.98,WSW,240,1.0,6.0,75,0.00,,,0.13,Wunderground v.1.15,2013-08-10 20:10:00,
2013-08-10 16:16:00,77.0,67.7,29.99,SW,215,1.0,6.0,73,0.00,,,0.13,Wunderground v.1.15,2013-08-10 20:16:00,
2013-08-10 16:21:00,77.4,68.1,29.99,SW,227,1.0,6.0,73,0.00,,,0.13,Wunderground v.1.15,2013-08-10 20:21:00,
2013-08-10 16:26:00,77.4,68.5,29.99,SW,227,0.0,6.0,74,0.00,,,0.13,Wunderground v.1.15,2013-08-10 20:26:00,
2013-08-10 16:32:00,77.4,69.2,29.99,SSW,196,0.0,7.0,76,0.00,,,0.13,Wunderground v.1.15,2013-08-10 20:32:00,
2013-08-10 16:38:00,77.2,68.3,29.99,SSW,213,0.0,7.0,74,0.00,,,0.13,Wunderground v.1.15,2013-08-10 20:38:00,
2013-08-10 16:43:00,77.4,69.2,29.99,SSW,213,0.0,7.0,76,0.00,,,0.13,Wunderground v.1.15,2013-08-10 20:43:00,
2013-08-10 16:48:00,77.7,68.7,29.98,SSW,213,0.0,7.0,74,0.00,,,0.13,Wunderground v.1.15,2013-08-10 20:48:00,
2013-08-10 16:53:00,78.5,69.1,29.98,SW,217,0.0,7.0,73,0.00,,,0.13,Wunderground v.1.15,2013-08-10 20:53:00,
2013-08-10 16:58:00,79.0,68.8,29.98,SW,228,0.0,7.0,71,0.00,,,0.13,Wunderground v.1.15,2013-08-10 20:58:00,
2013-08-10 17:04:00,79.4,68.3,29.98,SW,228,0.0,4.0,69,0.00,,,0.13,Wunderground v.1.15,2013-08-10 21:04:00,
2013-08-10 17:09:00,79.4,70.0,29.98,SW,226,0.0,4.0,73,0.00,,,0.13,Wunderground v.1.15,2013-08-10 21:09:00,
2013-08-10 17:15:00,78.5,68.3,29.98,SSE,168,0.0,4.0,71,0.00,,,0.13,Wunderground v.1.15,2013-08-10 21:15:00,
2013-08-10 17:21:00,78.3,67.7,29.98,SSE,168,0.0,4.0,70,0.00,,,0.13,Wunderground v.1.15,2013-08-10 21:21:00,
2013-08-10 17:26:00,78.3,66.9,29.98,SW,215,0.0,4.0,68,0.00,,,0.13,Wunderground v.1.15,2013-08-10 21:26:00,
2013-08-10 17:32:00,78.6,68.0,29.98,SW,227,0.0,4.0,70,0.00,,,0.13,Wunderground v.1.15,2013-08-10 21:32:00,
2013-08-10 17:37:00,78.8,67.8,29.98,SW,227,0.0,4.0,69,0.00,,,0.13,Wunderground v.1.15,2013-08-10 21:37:00,
2013-08-10 17:43:00,78.8,69.0,29.98,SW,227,0.0,4.0,72,0.00,,,0.13,Wunderground v.1.15,2013-08-10 21:43:00,
2013-08-10 17:48:00,78.6,70.4,29.99,SW,227,0.0,4.0,76,0.00,,,0.13,Wunderground v.1.15,2013-08-10 21:48:00,
2013-08-10 17:54:00,78.1,69.9,29.99,SW,227,0.0,4.0,76,0.00,,,0.13,Wunderground v.1.15,2013-08-10 21:54:00,
2013-08-10 17:59:00,77.4,69.6,29.99,SW,227,0.0,4.0,77,0.00,,,0.13,Wunderground v.1.15,2013-08-10 21:59:00,
2013-08-10 18:05:00,76.8,67.9,30.00,SW,227,0.0,0.0,74,0.00,,,0.13,Wunderground v.1.15,2013-08-10 22:05:00,
2013-08-10 18:10:00,76.7,69.3,30.00,SW,227,0.0,0.0,78,0.00,,,0.13,Wunderground v.1.15,2013-08-10 22:10:00,
2013-08-10 18:16:00,76.3,69.7,30.01,SW,227,0.0,0.0,80,0.00,,,0.13,Wunderground v.1.15,2013-08-10 22:16:00,
2013-08-10 18:21:00,75.8,68.8,30.01,SW,227,0.0,0.0,79,0.00,,,0.13,Wunderground v.1.15,2013-08-10 22:21:00,
2013-08-10 18:27:00,75.3,68.7,30.01,SW,227,0.0,0.0,80,0.00,,,0.13,Wunderground v.1.15,2013-08-10 22:27:00,
2013-08-10 18:32:00,74.7,68.1,30.01,SW,227,0.0,1.0,80,0.00,,,0.13,Wunderground v.1.15,2013-08-10 22:32:00,
2013-08-10 18:38:00,74.0,67.4,30.01,SW,227,0.0,1.0,80,0.00,,,0.13,Wunderground v.1.15,2013-08-10 22:38:00,
2013-08-10 18:44:00,73.5,66.9,30.01,SW,227,0.0,1.0,80,0.00,,,0.13,Wunderground v.1.15,2013-08-10 22:44:00,
2013-08-10 18:49:00,73.2,67.4,30.01,SW,227,0.0,1.0,82,0.00,,,0.13,Wunderground v.1.15,2013-08-10 22:49:00,
2013-08-10 18:55:00,72.8,67.0,30.01,SW,227,0.0,1.0,82,0.00,,,0.13,Wunderground v.1.15,2013-08-10 22:55:00,
2013-08-10 19:00:00,72.5,65.6,30.02,SW,227,0.0,1.0,79,0.00,,,0.13,Wunderground v.1.15,2013-08-10 23:00:00,
2013-08-10 19:06:00,72.1,65.2,30.02,SW,227,0.0,2.0,79,0.00,,,0.13,Wunderground v.1.15,2013-08-10 23:06:00,
2013-08-10 19:12:00,71.6,64.7,30.02,SW,227,0.0,2.0,79,0.00,,,0.13,Wunderground v.1.15,2013-08-10 23:12:00,
2013-08-10 19:17:00,71.3,64.4,30.02,SW,227,0.0,2.0,79,0.00,,,0.13,Wunderground v.1.15,2013-08-10 23:17:00,
2013-08-10 19:23:00,71.3,65.2,30.02,SW,227,0.0,2.0,81,0.00,,,0.13,Wunderground v.1.15,2013-08-10 23:23:00,
2013-08-10 19:28:00,71.1,65.3,30.02,SW,227,0.0,2.0,82,0.00,,,0.13,Wunderground v.1.15,2013-08-10 23:28:00,
2013-08-10 19:34:00,70.9,64.4,30.02,SW,227,0.0,0.0,80,0.00,,,0.13,Wunderground v.1.15,2013-08-10 23:34:00,
2013-08-10 19:40:00,70.9,65.5,30.02,SW,227,0.0,0.0,83,0.00,,,0.13,Wunderground v.1.15,2013-08-10 23:40:00,
2013-08-10 19:46:00,70.8,65.7,30.01,SW,227,0.0,0.0,84,0.00,,,0.13,Wunderground v.1.15,2013-08-10 23:46:00,
2013-08-10 19:51:00,70.6,65.5,30.01,SW,227,0.0,0.0,84,0.00,,,0.13,Wunderground v.1.15,2013-08-10 23:51:00,
2013-08-10 19:57:00,70.6,65.9,30.01,SW,227,0.0,1.0,85,0.00,,,0.13,Wunderground v.1.15,2013-08-10 23:57:00,
2013-08-10 20:02:00,70.6,66.2,30.02,SW,227,0.0,2.0,86,0.00,,,0.13,Wunderground v.1.15,2013-08-11 00:02:00,
2013-08-10 20:07:00,70.4,66.0,30.02,SW,227,0.0,2.0,86,0.00,,,0.13,Wunderground v.1.15,2013-08-11 00:07:00,
2013-08-10 20:13:00,70.3,65.9,30.02,SW,227,0.0,2.0,86,0.00,,,0.13,Wunderground v.1.15,2013-08-11 00:13:00,
2013-08-10 20:18:00,70.3,66.2,30.02,SW,227,0.0,2.0,87,0.00,,,0.13,Wunderground v.1.15,2013-08-11 00:18:00,
2013-08-10 20:23:00,70.1,66.4,30.02,SW,227,0.0,2.0,88,0.00,,,0.13,Wunderground v.1.15,2013-08-11 00:23:00,
2013-08-10 20:29:00,69.9,66.2,30.02,SW,227,0.0,2.0,88,0.00,,,0.13,Wunderground v.1.15,2013-08-11 00:29:00,
2013-08-10 20:34:00,69.6,66.2,30.02,SW,227,0.0,2.0,89,0.00,,,0.13,Wunderground v.1.15,2013-08-11 00:34:00,
2013-08-10 20:40:00,69.4,66.0,30.02,SW,227,0.0,2.0,89,0.00,,,0.13,Wunderground v.1.15,2013-08-11 00:40:00,
2013-08-10 20:45:00,69.1,65.7,30.02,SW,227,0.0,2.0,89,0.00,,,0.13,Wunderground v.1.15,2013-08-11 00:45:00,
2013-08-10 20:50:00,69.1,66.0,30.02,SW,227,0.0,2.0,90,0.00,,,0.13,Wunderground v.1.15,2013-08-11 00:50:00,
2013-08-10 20:56:00,68.8,65.7,30.02,SW,227,0.0,2.0,90,0.00,,,0.13,Wunderground v.1.15,2013-08-11 00:56:00,
2013-08-10 21:02:00,68.6,65.5,30.03,SW,227,0.0,0.0,90,0.00,,,0.13,Wunderground v.1.15,2013-08-11 01:02:00,
2013-08-10 21:07:00,68.4,65.7,30.03,SW,227,0.0,0.0,91,0.00,,,0.13,Wunderground v.1.15,2013-08-11 01:07:00,
2013-08-10 21:13:00,68.4,65.7,30.03,SW,227,0.0,0.0,91,0.00,,,0.13,Wunderground v.1.15,2013-08-11 01:13:00,
2013-08-10 21:18:00,68.3,65.6,30.03,SW,227,0.0,0.0,91,0.00,,,0.13,Wunderground v.1.15,2013-08-11 01:18:00,
2013-08-10 21:23:00,68.1,65.7,30.03,SW,227,0.0,0.0,92,0.00,,,0.13,Wunderground v.1.15,2013-08-11 01:23:00,
2013-08-10 21:29:00,68.1,65.7,30.03,SW,227,0.0,0.0,92,0.00,,,0.13,Wunderground v.1.15,2013-08-11 01:29:00,
2013-08-10 21:35:00,67.9,65.5,30.04,SW,227,0.0,0.0,92,0.00,,,0.13,Wunderground v.1.15,2013-08-11 01:35:00,
2013-08-10 21:41:00,67.8,65.7,30.04,SW,227,0.0,0.0,93,0.00,,,0.13,Wunderground v.1.15,2013-08-11 01:41:00,
2013-08-10 21:46:00,67.8,66.0,30.04,SW,227,0.0,0.0,94,0.00,,,0.13,Wunderground v.1.15,2013-08-11 01:46:00,
2013-08-10 21:51:00,67.8,66.0,30.04,SW,227,0.0,0.0,94,0.00,,,0.13,Wunderground v.1.15,2013-08-11 01:51:00,
2013-08-10 21:57:00,67.6,65.8,30.04,SW,227,0.0,0.0,94,0.00,,,0.13,Wunderground v.1.15,2013-08-11 01:57:00,
2013-08-10 22:02:00,67.6,65.8,30.04,SW,227,0.0,1.0,94,0.00,,,0.13,Wunderground v.1.15,2013-08-11 02:02:00,
2013-08-10 22:08:00,67.4,65.6,30.04,SW,227,0.0,1.0,94,0.00,,,0.13,Wunderground v.1.15,2013-08-11 02:08:00,
2013-08-10 22:14:00,67.3,65.5,30.04,SW,227,0.0,1.0,94,0.00,,,0.13,Wunderground v.1.15,2013-08-11 02:14:00,
2013-08-10 22:19:00,67.3,65.5,30.05,SW,227,0.0,1.0,94,0.00,,,0.13,Wunderground v.1.15,2013-08-11 02:19:00,
2013-08-10 22:24:00,67.1,65.3,30.05,SW,227,0.0,1.0,94,0.00,,,0.13,Wunderground v.1.15,2013-08-11 02:24:00,
2013-08-10 22:30:00,66.9,65.1,30.05,SW,227,0.0,1.0,94,0.00,,,0.13,Wunderground v.1.15,2013-08-11 02:30:00,
2013-08-10 22:35:00,66.9,65.1,30.05,SW,227,0.0,0.0,94,0.00,,,0.13,Wunderground v.1.15,2013-08-11 02:35:00,
2013-08-10 22:41:00,66.8,65.3,30.05,SW,227,0.0,0.0,95,0.00,,,0.13,Wunderground v.1.15,2013-08-11 02:41:00,
2013-08-10 22:46:00,66.6,65.1,30.04,SW,227,0.0,0.0,95,0.00,,,0.13,Wunderground v.1.15,2013-08-11 02:46:00,
2013-08-10 22:48:00,66.6,65.1,30.04,SW,227,0.0,0.0,95,0.00,,,0.13,Wunderground v.1.15,2013-08-11 02:48:00,
2013-08-10 22:54:00,66.4,64.9,30.04,SW,227,0.0,0.0,95,0.00,,,0.13,Wunderground v.1.15,2013-08-11 02:54:00,
2013-08-10 23:00:00,66.3,64.8,30.04,SW,227,0.0,0.0,95,0.00,,,0.13,Wunderground v.1.15,2013-08-11 03:00:00,
2013-08-10 23:06:00,66.3,64.8,30.04,SW,227,0.0,0.0,95,0.00,,,0.13,Wunderground v.1.15,2013-08-11 03:06:00,
2013-08-10 23:12:00,66.1,64.6,30.04,SW,227,0.0,0.0,95,0.00,,,0.13,Wunderground v.1.15,2013-08-11 03:12:00,
2013-08-10 23:18:00,66.1,64.6,30.04,SW,227,0.0,0.0,95,0.00,,,0.13,Wunderground v.1.15,2013-08-11 03:18:00,
2013-08-10 23:24:00,66.0,64.5,30.04,SW,227,0.0,0.0,95,0.00,,,0.13,Wunderground v.1.15,2013-08-11 03:24:00,
2013-08-10 23:29:00,65.8,64.3,30.04,SW,227,0.0,0.0,95,0.00,,,0.13,Wunderground v.1.15,2013-08-11 03:29:00,
2013-08-10 23:35:00,65.6,64.1,30.04,SW,227,0.0,0.0,95,0.00,,,0.13,Wunderground v.1.15,2013-08-11 03:35:00,
2013-08-10 23:41:00,65.6,64.1,30.04,SW,227,0.0,0.0,95,0.00,,,0.13,Wunderground v.1.15,2013-08-11 03:41:00,
2013-08-10 23:49:00,65.6,64.4,30.04,SW,227,0.0,0.0,96,0.00,,,0.13,Wunderground v.1.15,2013-08-11 03:49:00,
2013-08-10 23:54:00,65.6,64.1,30.04,SW,227,0.0,0.0,95,0.00,,,0.13,Wunderground v.1.15,2013-08-11 03:54:00,